createdAt,value
2023-06-17T00:00:41.245Z,6.00
2023-06-17T00:01:41.177Z,5.90
2023-06-17T00:02:41.316Z,5.80
2023-06-17T00:03:41.158Z,5.80
2023-06-17T00:04:41.165Z,5.50
2023-06-17T00:05:41.186Z,6.20
2023-06-17T00:06:41.138Z,5.70
2023-06-17T00:07:42.067Z,5.90
2023-06-17T00:08:41.143Z,6.30
2023-06-17T00:09:41.101Z,6.20
2023-06-17T00:10:41.135Z,5.90
2023-06-17T00:11:41.143Z,6.30
2023-06-17T00:12:41.095Z,6.10
2023-06-17T00:13:41.079Z,6.20
2023-06-17T00:14:41.114Z,6.00
2023-06-17T00:15:41.067Z,5.80
2023-06-17T00:16:41.099Z,6.10
2023-06-17T00:17:41.072Z,6.40
2023-06-17T00:18:41.086Z,6.60
2023-06-17T00:19:41.049Z,6.60
2023-06-17T00:20:41.094Z,7.30
2023-06-17T00:21:41.061Z,6.50
2023-06-17T00:22:41.015Z,6.50
2023-06-17T00:23:41.030Z,6.50
2023-06-17T00:24:41.029Z,6.40
2023-06-17T00:25:41.038Z,6.30
2023-06-17T00:26:40.988Z,6.40
2023-06-17T00:27:41.010Z,7.00
2023-06-17T00:28:40.985Z,6.50
2023-06-17T00:29:41.576Z,6.10
2023-06-17T00:30:40.952Z,6.60
2023-06-17T00:31:40.973Z,6.40
2023-06-17T00:32:42.262Z,7.10
2023-06-17T00:33:40.954Z,6.70
2023-06-17T00:34:40.918Z,6.70
2023-06-17T00:35:40.916Z,6.50
2023-06-17T00:36:40.909Z,6.40
2023-06-17T00:37:40.923Z,6.40
2023-06-17T00:38:40.914Z,6.50
2023-06-17T00:39:40.890Z,6.00
2023-06-17T00:40:40.902Z,6.20
2023-06-17T00:41:40.894Z,6.30
2023-06-17T00:42:40.854Z,7.00
2023-06-17T00:43:40.836Z,6.30
2023-06-17T00:44:40.848Z,6.00
2023-06-17T00:45:40.894Z,6.50
2023-06-17T00:46:40.934Z,6.90
2023-06-17T00:47:40.875Z,6.40
2023-06-17T00:48:40.822Z,6.40
2023-06-17T00:49:40.822Z,6.30
2023-06-17T00:50:40.869Z,6.30
2023-06-17T00:51:40.801Z,6.70
2023-06-17T00:52:42.622Z,6.60
2023-06-17T00:53:41.786Z,7.00
2023-06-17T00:54:40.801Z,7.00
2023-06-17T00:55:40.773Z,6.40
2023-06-17T00:56:40.740Z,7.10
2023-06-17T00:57:40.740Z,6.90
2023-06-17T00:58:40.756Z,7.40
2023-06-17T00:59:41.758Z,7.20
2023-06-17T01:00:41.558Z,7.20
2023-06-17T01:01:40.714Z,7.00
2023-06-17T01:02:40.776Z,7.00
2023-06-17T01:03:40.777Z,7.50
2023-06-17T01:04:40.727Z,7.00
2023-06-17T01:05:41.457Z,7.00
2023-06-17T01:06:41.456Z,7.00
2023-06-17T01:07:40.678Z,6.50
2023-06-17T01:08:40.686Z,7.20
2023-06-17T01:09:40.646Z,7.10
2023-06-17T01:10:40.658Z,7.10
2023-06-17T01:11:40.656Z,7.10
2023-06-17T01:12:40.635Z,7.30
2023-06-17T01:13:40.624Z,7.00
2023-06-17T01:14:41.646Z,7.20
2023-06-17T01:15:40.640Z,7.30
2023-06-17T01:16:40.637Z,7.20
2023-06-17T01:17:40.642Z,7.00
2023-06-17T01:18:40.635Z,7.70
2023-06-17T01:19:40.575Z,7.50
2023-06-17T01:20:40.631Z,7.70
2023-06-17T01:21:40.609Z,7.30
2023-06-17T01:22:40.593Z,6.80
2023-06-17T01:23:40.543Z,7.50
2023-06-17T01:24:40.572Z,7.40
2023-06-17T01:25:40.557Z,7.70
2023-06-17T01:26:40.579Z,6.70
2023-06-17T01:27:41.046Z,7.20
2023-06-17T01:28:40.530Z,7.30
2023-06-17T01:29:40.550Z,7.20
2023-06-17T01:30:40.513Z,7.50
2023-06-17T01:31:40.502Z,7.00
2023-06-17T01:32:40.519Z,7.40
2023-06-17T01:33:40.487Z,7.20
2023-06-17T01:34:40.484Z,7.80
2023-06-17T01:35:41.497Z,8.30
2023-06-17T01:36:40.548Z,7.40
2023-06-17T01:37:40.455Z,8.10
2023-06-17T01:38:40.464Z,7.60
2023-06-17T01:39:40.516Z,8.10
2023-06-17T01:40:40.479Z,7.80
2023-06-17T01:41:40.405Z,7.30
2023-06-17T01:42:40.422Z,7.20
2023-06-17T01:43:40.442Z,7.30
2023-06-17T01:44:40.437Z,7.30
2023-06-17T01:45:40.427Z,7.30
2023-06-17T01:46:40.397Z,7.20
2023-06-17T01:47:40.437Z,7.20
2023-06-17T01:48:40.385Z,7.30
2023-06-17T01:49:40.367Z,7.80
2023-06-17T01:50:40.355Z,7.10
2023-06-17T01:51:40.378Z,7.50
2023-06-17T01:52:40.350Z,7.30
2023-06-17T01:53:40.352Z,7.60
2023-06-17T01:54:40.340Z,7.40
2023-06-17T01:55:40.302Z,7.90
2023-06-17T01:56:40.346Z,8.20
2023-06-17T01:57:40.288Z,8.40
2023-06-17T01:58:40.284Z,8.30
2023-06-17T01:59:40.285Z,8.40
2023-06-17T02:00:40.291Z,8.00
2023-06-17T02:01:40.288Z,8.60
2023-06-17T02:02:40.339Z,7.80
2023-06-17T02:03:40.348Z,8.20
2023-06-17T02:04:40.288Z,8.50
2023-06-17T02:05:40.229Z,8.50
2023-06-17T02:06:40.233Z,8.80
2023-06-17T02:07:40.259Z,9.10
2023-06-17T02:08:40.244Z,8.90
2023-06-17T02:09:41.879Z,9.10
2023-06-17T02:10:40.205Z,9.10
2023-06-17T02:11:41.066Z,9.10
2023-06-17T02:12:40.195Z,8.50
2023-06-17T02:13:40.186Z,9.20
2023-06-17T02:14:40.173Z,8.70
2023-06-17T02:15:40.221Z,9.00
2023-06-17T02:16:40.195Z,8.70
2023-06-17T02:17:40.208Z,8.60
2023-06-17T02:18:40.165Z,8.60
2023-06-17T02:19:40.159Z,8.70
2023-06-17T02:20:40.137Z,8.40
2023-06-17T02:21:40.139Z,8.70
2023-06-17T02:22:40.099Z,8.30
2023-06-17T02:23:40.512Z,8.80
2023-06-17T02:24:40.176Z,8.10
2023-06-17T02:25:41.220Z,8.50
2023-06-17T02:26:40.070Z,8.80
2023-06-17T02:27:40.072Z,7.90
2023-06-17T02:28:40.065Z,7.60
2023-06-17T02:29:41.575Z,7.60
2023-06-17T02:30:40.049Z,8.40
2023-06-17T02:31:40.119Z,8.50
2023-06-17T02:32:40.086Z,8.40
2023-06-17T02:33:40.006Z,8.20
2023-06-17T02:34:40.035Z,8.50
2023-06-17T02:35:40.018Z,9.40
2023-06-17T02:36:39.993Z,9.00
2023-06-17T02:37:40.559Z,8.60
2023-06-17T02:38:39.962Z,9.00
2023-06-17T02:39:40.546Z,9.10
2023-06-17T02:40:40.018Z,8.60
2023-06-17T02:41:39.950Z,8.10
2023-06-17T02:42:39.958Z,8.90
2023-06-17T02:43:39.951Z,8.40
2023-06-17T02:44:39.926Z,8.50
2023-06-17T02:45:39.945Z,7.90
2023-06-17T02:46:39.991Z,8.70
2023-06-17T02:47:40.532Z,8.70
2023-06-17T02:48:39.887Z,8.20
2023-06-17T02:49:39.890Z,8.50
2023-06-17T02:50:39.888Z,8.10
2023-06-17T02:51:39.913Z,8.30
2023-06-17T02:52:39.876Z,8.00
2023-06-17T02:53:39.848Z,8.20
2023-06-17T02:54:39.853Z,8.70
2023-06-17T02:55:39.860Z,9.00
2023-06-17T02:56:39.832Z,8.40
2023-06-17T02:57:39.861Z,8.60
2023-06-17T02:58:39.815Z,9.00
2023-06-17T02:59:39.968Z,8.70
2023-06-17T03:00:39.859Z,8.50
2023-06-17T03:01:39.776Z,8.90
2023-06-17T03:02:39.892Z,9.20
2023-06-17T03:03:39.756Z,8.50
2023-06-17T03:04:39.778Z,8.50
2023-06-17T03:05:39.847Z,9.00
2023-06-17T03:06:39.746Z,9.00
2023-06-17T03:07:39.740Z,8.90
2023-06-17T03:08:39.751Z,8.70
2023-06-17T03:09:40.400Z,8.70
2023-06-17T03:10:39.732Z,9.00
2023-06-17T03:11:39.706Z,8.50
2023-06-17T03:12:39.713Z,8.10
2023-06-17T03:13:39.701Z,8.40
2023-06-17T03:14:39.747Z,8.90
2023-06-17T03:15:39.687Z,9.10
2023-06-17T03:16:40.583Z,8.50
2023-06-17T03:17:39.716Z,9.00
2023-06-17T03:18:39.677Z,8.90
2023-06-17T03:19:39.677Z,9.20
2023-06-17T03:20:39.674Z,8.90
2023-06-17T03:21:39.678Z,9.80
2023-06-17T03:22:39.658Z,9.20
2023-06-17T03:23:39.647Z,9.40
2023-06-17T03:24:39.767Z,9.90
2023-06-17T03:25:39.625Z,9.90
2023-06-17T03:26:39.648Z,8.90
2023-06-17T03:27:39.616Z,8.90
2023-06-17T03:28:39.620Z,9.20
2023-06-17T03:29:39.607Z,8.90
2023-06-17T03:30:39.617Z,8.90
2023-06-17T03:31:39.612Z,8.50
2023-06-17T03:32:39.577Z,8.00
2023-06-17T03:33:39.587Z,8.10
2023-06-17T03:34:40.084Z,8.20
2023-06-17T03:35:39.582Z,8.10
2023-06-17T03:36:39.562Z,7.70
2023-06-17T03:37:39.541Z,7.70
2023-06-17T03:38:39.510Z,7.60
2023-06-17T03:39:39.513Z,7.90
2023-06-17T03:40:39.508Z,7.70
2023-06-17T03:41:39.545Z,7.00
2023-06-17T03:42:39.503Z,6.80
2023-06-17T03:43:39.481Z,7.40
2023-06-17T03:44:39.458Z,7.70
2023-06-17T03:45:39.461Z,7.00
2023-06-17T03:46:39.481Z,6.90
2023-06-17T03:47:39.480Z,7.40
2023-06-17T04:03:46.559Z,5.70
2023-06-17T04:04:46.353Z,6.80
2023-06-17T04:05:46.365Z,7.30
2023-06-17T04:06:47.528Z,7.00
2023-06-17T04:07:47.498Z,7.30
2023-06-17T04:08:47.495Z,6.80
2023-06-17T04:10:01.751Z,7.20
2023-06-17T04:10:48.454Z,6.80
2023-06-17T04:11:47.480Z,7.10
2023-06-17T04:12:47.461Z,6.80
2023-06-17T04:13:47.433Z,7.00
2023-06-17T04:14:47.447Z,6.40
2023-06-17T04:15:47.562Z,6.30
2023-06-17T04:16:51.604Z,6.50
2023-06-17T04:17:47.514Z,6.30
2023-06-17T04:18:47.413Z,6.50
2023-06-17T04:19:47.412Z,6.30
2023-06-17T04:20:47.383Z,6.30
2023-06-17T04:21:47.432Z,7.00
2023-06-17T04:22:47.408Z,6.70
2023-06-17T04:23:47.359Z,6.30
2023-06-17T04:24:47.375Z,6.20
2023-06-17T04:25:47.341Z,6.20
2023-06-17T04:26:47.336Z,6.10
2023-06-17T04:27:47.333Z,6.20
2023-06-17T04:28:47.347Z,6.40
2023-06-17T04:29:47.334Z,6.30
2023-06-17T04:30:47.329Z,6.10
2023-06-17T04:31:47.389Z,6.10
2023-06-17T04:32:48.652Z,6.50
2023-06-17T04:33:47.308Z,6.60
2023-06-17T04:34:47.310Z,6.10
2023-06-17T04:35:47.308Z,6.40
2023-06-17T04:36:47.295Z,6.00
2023-06-17T04:37:47.285Z,6.20
2023-06-17T04:38:47.261Z,6.50
2023-06-17T04:39:47.306Z,6.80
2023-06-17T04:40:47.290Z,6.40
2023-06-17T04:41:47.362Z,6.90
2023-06-17T04:42:47.261Z,6.80
2023-06-17T04:43:48.071Z,6.50
2023-06-17T04:44:47.214Z,6.20
2023-06-17T04:45:47.191Z,7.00
2023-06-17T04:46:47.270Z,6.80
2023-06-17T04:47:47.197Z,6.50
2023-06-17T04:48:47.183Z,6.40
2023-06-17T04:49:48.081Z,6.50
2023-06-17T04:50:47.188Z,7.00
2023-06-17T04:51:47.205Z,6.80
2023-06-17T04:52:47.184Z,6.20
2023-06-17T04:53:47.176Z,6.40
2023-06-17T04:54:47.130Z,7.10
2023-06-17T04:55:47.117Z,6.90
2023-06-17T04:56:47.119Z,6.30
2023-06-17T04:57:47.118Z,6.20
2023-06-17T04:58:47.131Z,6.30
2023-06-17T04:59:47.125Z,6.70
2023-06-17T05:00:47.160Z,7.10
2023-06-17T05:01:47.105Z,7.00
2023-06-17T05:02:47.126Z,6.30
2023-06-17T05:03:47.150Z,7.60
2023-06-17T05:04:47.064Z,6.80
2023-06-17T05:05:47.054Z,6.40
2023-06-17T05:06:47.050Z,6.90
2023-06-17T05:07:47.021Z,6.50
2023-06-17T05:08:47.048Z,6.60
2023-06-17T05:09:46.999Z,7.30
2023-06-17T05:10:47.032Z,6.90
2023-06-17T05:11:47.018Z,6.90
2023-06-17T05:12:47.040Z,7.00
2023-06-17T05:13:47.015Z,7.10
2023-06-17T05:14:46.997Z,6.70
2023-06-17T05:15:46.996Z,6.30
2023-06-17T05:16:47.013Z,7.00
2023-06-17T05:17:47.022Z,7.20
2023-06-17T05:18:46.968Z,6.70
2023-06-17T05:19:46.968Z,7.20
2023-06-17T05:20:46.959Z,7.20
2023-06-17T05:21:46.936Z,6.60
2023-06-17T05:22:47.144Z,7.30
2023-06-17T05:23:46.986Z,7.00
2023-06-17T05:24:46.952Z,7.00
2023-06-17T05:25:46.891Z,7.00
2023-06-17T05:26:46.917Z,7.20
2023-06-17T05:27:46.874Z,7.00
2023-06-17T05:28:46.892Z,7.30
2023-06-17T05:29:46.847Z,7.10
2023-06-17T05:30:46.893Z,7.30
2023-06-17T05:31:46.833Z,6.60
2023-06-17T05:32:46.917Z,6.50
2023-06-17T05:33:46.847Z,6.60
2023-06-17T05:34:46.826Z,7.00
2023-06-17T05:35:46.816Z,6.50
2023-06-17T05:36:46.830Z,7.00
2023-06-17T05:37:46.833Z,6.90
2023-06-17T05:38:46.822Z,6.90
2023-06-17T05:39:46.787Z,6.60
2023-06-17T05:40:46.792Z,6.80
2023-06-17T05:41:46.783Z,7.20
2023-06-17T05:42:46.791Z,6.90
2023-06-17T05:43:46.753Z,6.80
2023-06-17T05:44:47.428Z,7.10
2023-06-17T05:45:46.753Z,7.00
2023-06-17T05:46:46.794Z,7.10
2023-06-17T05:47:46.763Z,7.00
2023-06-17T05:48:46.746Z,7.40
2023-06-17T05:49:46.725Z,6.90
2023-06-17T05:50:46.709Z,6.90
2023-06-17T05:51:46.736Z,7.20
2023-06-17T05:52:46.707Z,6.70
2023-06-17T05:53:47.140Z,6.60
2023-06-17T05:54:47.676Z,7.50
2023-06-17T05:55:46.668Z,6.60
2023-06-17T05:56:46.673Z,6.80
2023-06-17T05:57:46.674Z,7.00
2023-06-17T05:58:46.693Z,6.70
2023-06-17T05:59:46.653Z,7.10
2023-06-17T06:00:46.662Z,6.80
2023-06-17T06:01:46.696Z,7.00
2023-06-17T06:02:46.731Z,6.80
2023-06-17T06:03:46.677Z,6.90
2023-06-17T06:04:46.649Z,6.40
2023-06-17T06:05:46.625Z,6.30
2023-06-17T06:06:46.623Z,6.70
2023-06-17T06:07:46.604Z,6.90
2023-06-17T06:08:46.593Z,6.90
2023-06-17T06:09:46.628Z,7.10
2023-06-17T06:10:46.669Z,6.50
2023-06-17T06:11:46.592Z,6.80
2023-06-17T06:12:46.577Z,6.90
2023-06-17T06:13:47.484Z,6.60
2023-06-17T06:14:47.292Z,6.70
2023-06-17T06:15:47.556Z,7.40
2023-06-17T06:16:46.688Z,6.70
2023-06-17T06:17:47.154Z,6.80
2023-06-17T06:18:46.534Z,6.80
2023-06-17T06:19:46.541Z,6.50
2023-06-17T06:20:47.205Z,6.40
2023-06-17T06:21:46.491Z,6.90
2023-06-17T06:22:47.477Z,6.90
2023-06-17T06:23:46.460Z,6.80
2023-06-17T06:24:46.478Z,6.80
2023-06-17T06:25:46.467Z,6.30
2023-06-17T06:26:47.501Z,7.00
2023-06-17T06:27:46.441Z,6.30
2023-06-17T06:28:46.442Z,6.60
2023-06-17T06:29:46.455Z,6.50
2023-06-17T06:30:46.408Z,7.20
2023-06-17T06:31:46.475Z,6.90
2023-06-17T06:32:46.452Z,6.50
2023-06-17T06:33:46.415Z,6.70
2023-06-17T06:34:46.422Z,6.80
2023-06-17T06:35:46.383Z,6.60
2023-06-17T06:36:46.365Z,6.90
2023-06-17T06:37:46.412Z,6.60
2023-06-17T06:38:46.379Z,6.80
2023-06-17T06:39:46.387Z,6.80
2023-06-17T06:40:46.358Z,7.00
2023-06-17T06:41:46.351Z,6.80
2023-06-17T06:42:46.336Z,7.10
2023-06-17T06:43:46.370Z,7.00
2023-06-17T06:44:46.348Z,6.80
2023-06-17T06:45:46.373Z,7.10
2023-06-17T06:46:46.290Z,6.70
2023-06-17T06:47:46.336Z,6.90
2023-06-17T06:48:46.301Z,6.80
2023-06-17T06:49:46.302Z,7.30
2023-06-17T06:50:46.283Z,7.40
2023-06-17T06:51:46.289Z,6.90
2023-06-17T06:52:46.258Z,6.90
2023-06-17T06:53:46.300Z,7.50
2023-06-17T06:54:46.258Z,7.00
2023-06-17T06:55:46.223Z,6.80
2023-06-17T06:56:46.961Z,6.90
2023-06-17T06:57:46.958Z,6.90
2023-06-17T06:58:46.248Z,6.80
2023-06-17T06:59:46.233Z,6.80
2023-06-17T07:00:46.217Z,6.80
2023-06-17T07:01:46.207Z,6.60
2023-06-17T07:02:46.218Z,7.00
2023-06-17T07:03:46.179Z,7.00
2023-06-17T07:04:46.219Z,6.80
2023-06-17T07:05:46.191Z,6.70
2023-06-17T07:06:46.184Z,6.50
2023-06-17T07:07:46.168Z,6.70
2023-06-17T07:08:46.147Z,6.10
2023-06-17T07:09:46.153Z,6.60
2023-06-17T07:10:46.149Z,6.30
2023-06-17T07:11:46.121Z,6.50
2023-06-17T07:12:46.101Z,6.30
2023-06-17T07:13:46.128Z,6.10
2023-06-17T07:14:46.123Z,6.00
2023-06-17T07:15:46.137Z,6.20
2023-06-17T07:16:46.127Z,6.50
2023-06-17T07:17:46.105Z,6.20
2023-06-17T07:18:46.111Z,6.30
2023-06-17T07:19:46.067Z,6.40
2023-06-17T07:20:46.080Z,6.50
2023-06-17T07:21:46.073Z,6.40
2023-06-17T07:22:46.091Z,6.10
2023-06-17T07:23:46.029Z,6.70
2023-06-17T07:24:46.051Z,5.70
2023-06-17T07:25:46.047Z,6.30
2023-06-17T07:26:46.030Z,6.50
2023-06-17T07:27:46.007Z,5.80
2023-06-17T07:28:46.008Z,5.70
2023-06-17T07:29:47.005Z,6.60
2023-06-17T07:30:46.046Z,6.10
2023-06-17T07:31:46.120Z,6.10
2023-06-17T07:32:45.993Z,5.60
2023-06-17T07:33:45.963Z,6.00
2023-06-17T07:34:45.964Z,6.10
2023-06-17T07:35:45.992Z,6.00
2023-06-17T07:36:45.980Z,6.00
2023-06-17T07:37:45.965Z,5.90
2023-06-17T07:38:45.942Z,5.60
2023-06-17T07:39:45.922Z,5.70
2023-06-17T07:40:45.932Z,5.30
2023-06-17T07:41:45.929Z,5.60
2023-06-17T07:42:45.958Z,5.30
2023-06-17T07:43:45.937Z,5.10
2023-06-17T07:44:45.948Z,5.10
2023-06-17T07:45:45.888Z,5.50
2023-06-17T07:46:45.945Z,5.00
2023-06-17T07:47:46.021Z,5.30
2023-06-17T07:48:45.872Z,5.00
2023-06-17T07:49:45.857Z,4.60
2023-06-17T07:50:45.870Z,4.60
2023-06-17T07:51:45.871Z,4.60
2023-06-17T07:52:45.850Z,4.60
2023-06-17T07:53:45.865Z,4.70
2023-06-17T07:54:45.834Z,4.90
2023-06-17T07:55:45.823Z,4.60
2023-06-17T07:56:45.836Z,4.50
2023-06-17T07:57:46.642Z,4.70
2023-06-17T07:58:45.817Z,4.90
2023-06-17T07:59:46.701Z,4.90
2023-06-17T08:00:45.808Z,4.50
2023-06-17T08:01:45.843Z,5.00
2023-06-17T08:02:45.870Z,4.80
2023-06-17T08:03:45.953Z,4.70
2023-06-17T08:04:45.800Z,4.40
2023-06-17T08:05:45.783Z,4.30
2023-06-17T08:06:45.777Z,4.50
2023-06-17T08:07:45.792Z,4.70
2023-06-17T08:08:45.752Z,4.70
2023-06-17T08:09:45.711Z,5.10
2023-06-17T08:10:45.756Z,4.50
2023-06-17T08:11:45.827Z,4.40
2023-06-17T08:12:45.741Z,4.50
2023-06-17T08:13:45.736Z,4.20
2023-06-17T08:14:46.652Z,4.40
2023-06-17T08:15:45.708Z,4.20
2023-06-17T08:16:45.702Z,4.60
2023-06-17T08:17:45.738Z,4.60
2023-06-17T08:18:45.661Z,4.60
2023-06-17T08:19:45.652Z,4.70
2023-06-17T08:20:45.750Z,4.50
2023-06-17T08:21:45.655Z,4.50
2023-06-17T08:22:45.656Z,4.80
2023-06-17T08:23:46.175Z,4.50
2023-06-17T08:24:46.653Z,4.40
2023-06-17T08:25:45.608Z,4.70
2023-06-17T08:26:45.671Z,4.60
2023-06-17T08:27:45.620Z,4.00
2023-06-17T08:28:45.608Z,3.60
2023-06-17T08:29:46.622Z,3.60
2023-06-17T08:30:45.582Z,3.20
2023-06-17T08:31:45.605Z,3.20
2023-06-17T08:32:45.616Z,3.30
2023-06-17T08:33:45.601Z,3.40
2023-06-17T08:34:45.597Z,3.00
2023-06-17T08:35:46.193Z,2.80
2023-06-17T08:36:45.531Z,3.40
2023-06-17T08:37:45.587Z,3.30
2023-06-17T08:38:45.544Z,3.20
2023-06-17T08:39:45.631Z,3.50
2023-06-17T08:40:45.513Z,3.30
2023-06-17T08:41:45.513Z,3.30
2023-06-17T08:42:45.503Z,3.10
2023-06-17T08:43:45.528Z,3.30
2023-06-17T08:44:45.512Z,3.00
2023-06-17T08:45:46.193Z,3.10
2023-06-17T08:46:45.515Z,3.10
2023-06-17T08:47:45.563Z,3.20
2023-06-17T08:48:45.461Z,3.30
2023-06-17T08:49:45.488Z,3.30
2023-06-17T08:50:45.486Z,3.30
2023-06-17T08:51:45.454Z,3.30
2023-06-17T08:52:45.461Z,3.30
2023-06-17T08:53:45.421Z,3.20
2023-06-17T08:54:45.441Z,3.30
2023-06-17T08:55:45.419Z,3.50
2023-06-17T08:56:45.420Z,3.90
2023-06-17T08:57:45.419Z,3.60
2023-06-17T08:58:45.386Z,3.60
2023-06-17T08:59:45.418Z,3.10
2023-06-17T09:00:45.407Z,3.10
2023-06-17T09:01:45.420Z,3.20
2023-06-17T09:02:45.411Z,3.00
2023-06-17T09:03:45.360Z,3.60
2023-06-17T09:04:45.370Z,3.30
2023-06-17T09:05:45.341Z,3.30
2023-06-17T09:06:45.344Z,3.10
2023-06-17T09:07:45.367Z,3.20
2023-06-17T09:08:45.396Z,3.30
2023-06-17T09:09:45.311Z,3.30
2023-06-17T09:10:45.321Z,3.30
2023-06-17T09:11:45.312Z,3.30
2023-06-17T09:12:45.315Z,3.30
2023-06-17T09:13:46.278Z,3.40
2023-06-17T09:14:45.301Z,3.10
2023-06-17T09:15:45.294Z,3.30
2023-06-17T09:16:46.858Z,3.10
2023-06-17T09:17:45.319Z,2.90
2023-06-17T09:18:46.120Z,3.00
2023-06-17T09:19:45.250Z,3.10
2023-06-17T09:20:45.210Z,3.20
2023-06-17T09:21:46.293Z,3.20
2023-06-17T09:22:46.123Z,3.20
2023-06-17T09:23:45.206Z,3.10
2023-06-17T09:24:45.207Z,3.10
2023-06-17T09:25:45.231Z,2.90
2023-06-17T09:26:45.334Z,3.20
2023-06-17T09:27:50.620Z,3.00
2023-06-17T09:28:46.221Z,3.00
2023-06-17T09:29:45.702Z,3.00
2023-06-17T09:30:45.613Z,3.10
2023-06-17T09:31:45.206Z,3.20
2023-06-17T09:32:45.210Z,3.40
2023-06-17T09:33:45.155Z,3.10
2023-06-17T09:34:45.166Z,3.10
2023-06-17T09:35:45.149Z,3.20
2023-06-17T09:36:45.143Z,2.80
2023-06-17T09:37:57.997Z,2.90
2023-06-17T09:38:46.231Z,3.00
2023-06-17T09:39:45.141Z,3.20
2023-06-17T09:40:45.117Z,3.20
2023-06-17T09:41:45.146Z,3.10
2023-06-17T09:42:45.136Z,3.20
2023-06-17T09:43:45.140Z,3.00
2023-06-17T09:44:45.090Z,3.20
2023-06-17T09:45:45.131Z,3.40
2023-06-17T09:46:45.104Z,3.20
2023-06-17T09:47:45.145Z,3.30
2023-06-17T09:48:45.087Z,3.10
2023-06-17T09:49:45.047Z,3.30
2023-06-17T09:50:45.706Z,3.30
2023-06-17T09:51:45.041Z,2.90
2023-06-17T09:52:45.036Z,2.90
2023-06-17T09:53:45.627Z,3.10
2023-06-17T09:54:45.044Z,3.10
2023-06-17T09:55:45.020Z,3.00
2023-06-17T09:56:45.155Z,3.20
2023-06-17T09:57:45.054Z,3.00
2023-06-17T09:58:45.090Z,3.20
2023-06-17T09:59:45.047Z,3.40
2023-06-17T10:00:44.992Z,3.30
2023-06-17T10:01:44.978Z,3.60
2023-06-17T10:02:45.139Z,3.30
2023-06-17T10:03:45.100Z,2.90
2023-06-17T10:04:45.052Z,3.40
2023-06-17T10:05:44.997Z,3.50
2023-06-17T10:06:44.990Z,3.30
2023-06-17T10:07:44.999Z,3.20
2023-06-17T10:08:45.741Z,3.40
2023-06-17T10:09:44.941Z,3.10
2023-06-17T10:10:44.921Z,3.60
2023-06-17T10:11:44.963Z,3.40
2023-06-17T10:12:45.005Z,3.60
2023-06-17T10:13:44.921Z,3.80
2023-06-17T10:14:44.894Z,3.10
2023-06-17T10:15:44.873Z,3.50
2023-06-17T10:16:45.450Z,3.40
2023-06-17T10:17:45.970Z,3.60
2023-06-17T10:18:44.918Z,3.30
2023-06-17T10:19:44.874Z,3.80
2023-06-17T10:20:44.892Z,3.60
2023-06-17T10:21:44.847Z,3.70
2023-06-17T10:22:44.866Z,3.50
2023-06-17T10:23:44.866Z,3.50
2023-06-17T10:24:45.014Z,3.80
2023-06-17T10:25:44.900Z,3.40
2023-06-17T10:26:44.855Z,3.50
2023-06-17T10:27:44.822Z,3.60
2023-06-17T10:28:44.849Z,3.50
2023-06-17T10:29:44.839Z,3.60
2023-06-17T10:30:44.814Z,3.40
2023-06-17T10:31:44.806Z,3.60
2023-06-17T10:32:44.831Z,3.70
2023-06-17T10:33:44.820Z,3.50
2023-06-17T10:34:44.785Z,3.50
2023-06-17T10:35:45.781Z,3.40
2023-06-17T10:36:44.749Z,3.60
2023-06-17T10:37:44.749Z,3.60
2023-06-17T10:38:44.745Z,3.80
2023-06-17T10:39:44.739Z,3.50
2023-06-17T10:40:44.840Z,3.90
2023-06-17T10:41:44.721Z,3.70
2023-06-17T10:42:44.777Z,3.80
2023-06-17T10:43:45.557Z,3.70
2023-06-17T10:44:44.732Z,3.70
2023-06-17T10:45:44.817Z,3.70
2023-06-17T10:46:44.694Z,3.70
2023-06-17T10:47:44.759Z,3.80
2023-06-17T10:48:44.697Z,3.90
2023-06-17T10:49:44.638Z,3.70
2023-06-17T10:50:44.676Z,3.50
2023-06-17T10:51:57.404Z,3.80
2023-06-17T10:52:46.657Z,3.90
2023-06-17T10:53:44.794Z,3.90
2023-06-17T10:54:44.671Z,3.70
2023-06-17T10:55:45.350Z,3.70
2023-06-17T10:56:45.326Z,4.10
2023-06-17T10:57:44.629Z,3.40
2023-06-17T10:58:44.678Z,4.00
2023-06-17T10:59:44.606Z,3.90
2023-06-17T11:00:44.611Z,3.90
2023-06-17T11:01:44.580Z,3.90
2023-06-17T11:02:44.630Z,3.90
2023-06-17T11:03:44.645Z,4.00
2023-06-17T11:04:44.558Z,4.00
2023-06-17T11:05:44.569Z,3.70
2023-06-17T11:06:44.552Z,3.90
2023-06-17T11:07:44.581Z,4.00
2023-06-17T11:08:44.556Z,4.00
2023-06-17T11:09:44.558Z,3.90
2023-06-17T11:10:45.721Z,4.10
2023-06-17T11:11:45.320Z,3.70
2023-06-17T11:12:45.290Z,4.10
2023-06-17T11:13:44.594Z,4.10
2023-06-17T11:14:44.513Z,4.40
2023-06-17T11:15:44.574Z,4.40
2023-06-17T11:16:44.500Z,4.10
2023-06-17T11:17:44.611Z,4.10
2023-06-17T11:18:44.498Z,4.20
2023-06-17T11:19:44.496Z,4.30
2023-06-17T11:20:44.543Z,4.30
2023-06-17T11:21:44.451Z,3.90
2023-06-17T11:22:44.472Z,3.90
2023-06-17T11:23:44.535Z,4.00
2023-06-17T11:24:44.464Z,3.80
2023-06-17T11:25:46.054Z,4.20
2023-06-17T11:26:44.489Z,4.10
2023-06-17T11:27:44.394Z,4.10
2023-06-17T11:28:44.420Z,4.20
2023-06-17T11:29:44.410Z,4.30
2023-06-17T11:30:44.780Z,3.90
2023-06-17T11:31:44.383Z,4.00
2023-06-17T11:32:44.508Z,4.00
2023-06-17T11:33:44.389Z,4.60
2023-06-17T11:35:16.287Z,4.10
2023-06-17T11:36:16.827Z,4.10
2023-06-17T11:36:44.420Z,4.10
2023-06-17T11:37:44.389Z,4.10
2023-06-17T11:38:44.390Z,4.10
2023-06-17T11:39:44.363Z,4.60
2023-06-17T11:40:44.336Z,4.40
2023-06-17T11:41:45.313Z,4.30
2023-06-17T11:42:44.346Z,4.10
2023-06-17T11:43:44.434Z,4.20
2023-06-17T11:44:44.364Z,4.00
2023-06-17T11:45:44.341Z,4.30
2023-06-17T11:46:44.435Z,4.30
2023-06-17T11:47:44.336Z,4.20
2023-06-17T11:48:44.360Z,4.30
2023-06-17T11:49:44.303Z,4.20
2023-06-17T11:50:44.289Z,4.00
2023-06-17T11:51:44.264Z,4.30
2023-06-17T11:52:44.314Z,4.00
2023-06-17T11:53:44.267Z,3.90
2023-06-17T11:54:44.229Z,4.00
2023-06-17T11:55:44.238Z,4.00
2023-06-17T11:56:44.253Z,3.90
2023-06-17T11:57:44.283Z,4.00
2023-06-17T11:58:44.304Z,4.20
2023-06-17T11:59:44.236Z,4.00
2023-06-17T12:00:45.138Z,3.80
2023-06-17T12:01:44.277Z,4.00
2023-06-17T12:02:44.415Z,3.70
2023-06-17T12:03:44.238Z,4.20
2023-06-17T12:04:44.206Z,4.30
2023-06-17T12:05:44.214Z,4.20
2023-06-17T12:06:44.248Z,4.30
2023-06-17T12:07:44.166Z,3.90
2023-06-17T12:08:44.154Z,3.90
2023-06-17T12:09:44.177Z,4.10
2023-06-17T12:10:44.195Z,3.90
2023-06-17T12:11:44.162Z,3.90
2023-06-17T12:12:44.140Z,4.10
2023-06-17T12:13:44.086Z,4.00
2023-06-17T12:14:44.116Z,4.10
2023-06-17T12:15:44.102Z,3.70
2023-06-17T12:16:45.900Z,3.90
2023-06-17T12:17:44.210Z,3.90
2023-06-17T12:18:44.088Z,3.90
2023-06-17T12:19:44.079Z,4.20
2023-06-17T12:20:44.130Z,4.10
2023-06-17T12:21:44.816Z,4.00
2023-06-17T12:22:44.093Z,3.90
2023-06-17T12:23:44.649Z,4.30
2023-06-17T12:24:45.153Z,4.10
2023-06-17T12:25:44.095Z,3.80
2023-06-17T12:26:44.049Z,4.00
2023-06-17T12:27:44.175Z,4.00
2023-06-17T12:29:25.634Z,4.20
2023-06-17T12:29:44.984Z,4.00
2023-06-17T12:30:43.950Z,4.00
2023-06-17T12:31:44.028Z,4.00
2023-06-17T12:32:44.317Z,3.90
2023-06-17T12:33:44.038Z,3.80
2023-06-17T12:34:43.994Z,4.10
2023-06-17T12:35:43.983Z,3.90
2023-06-17T12:36:43.981Z,4.00
2023-06-17T12:37:43.953Z,4.40
2023-06-17T12:38:43.983Z,3.90
2023-06-17T12:39:44.889Z,4.00
2023-06-17T12:40:43.893Z,4.20
2023-06-17T12:41:43.937Z,4.40
2023-06-17T12:42:43.925Z,4.00
2023-06-17T12:43:43.907Z,4.20
2023-06-17T12:44:43.872Z,4.30
2023-06-17T12:45:43.906Z,4.40
2023-06-17T12:46:43.914Z,3.90
2023-06-17T12:47:43.921Z,3.90
2023-06-17T12:48:43.876Z,3.90
2023-06-17T12:49:43.873Z,3.90
2023-06-17T12:50:44.710Z,3.80
2023-06-17T12:51:43.847Z,3.90
2023-06-17T12:52:43.853Z,4.10
2023-06-17T12:53:43.898Z,4.00
2023-06-17T12:54:43.822Z,3.90
2023-06-17T12:55:44.370Z,4.00
2023-06-17T12:56:43.817Z,3.90
2023-06-17T12:57:43.796Z,3.70
2023-06-17T12:58:43.868Z,4.30
2023-06-17T12:59:43.799Z,4.30
2023-06-17T13:00:43.767Z,4.00
2023-06-17T13:01:43.793Z,3.80
2023-06-17T13:02:43.879Z,4.20
2023-06-17T13:03:43.942Z,4.00
2023-06-17T13:04:44.386Z,3.90
2023-06-17T13:05:43.745Z,3.90
2023-06-17T13:06:43.716Z,3.90
2023-06-17T13:07:43.709Z,4.70
2023-06-17T13:08:43.729Z,3.90
2023-06-17T13:09:43.757Z,3.60
2023-06-17T13:10:43.705Z,3.70
2023-06-17T13:11:43.684Z,4.60
2023-06-17T13:12:44.208Z,4.10
2023-06-17T13:13:43.692Z,4.20
2023-06-17T13:14:43.699Z,3.80
2023-06-17T13:15:43.650Z,4.10
2023-06-17T13:16:43.708Z,4.20
2023-06-17T13:17:43.673Z,4.10
2023-06-17T13:18:43.644Z,4.40
2023-06-17T13:19:43.661Z,4.20
2023-06-17T13:20:44.423Z,3.90
2023-06-17T13:21:43.629Z,4.00
2023-06-17T13:22:43.618Z,3.90
2023-06-17T13:23:43.616Z,3.90
2023-06-17T13:24:43.636Z,4.00
2023-06-17T13:25:43.663Z,4.00
2023-06-17T13:26:43.573Z,4.00
2023-06-17T13:27:43.591Z,3.90
2023-06-17T13:28:43.597Z,4.20
2023-06-17T13:29:43.611Z,3.90
2023-06-17T13:30:43.582Z,3.80
2023-06-17T13:31:43.561Z,4.10
2023-06-17T13:32:43.586Z,4.10
2023-06-17T13:33:43.527Z,4.00